Time;durP1;ratioP1;P1;durP2;ratioP2;P2;SDS_P1;SDS_P2;PMS_P1;PMS_P2;Temp;Humidity;BMP_temperature;BMP_pressure;BME280_temperature;BME280_humidity;BME280_pressure;Samples;Min_cycle;Max_cycle;Signal;HPM_P1;HPM_P2
2022/08/13 00:00:36;;;;;;;6.02;5.66;;;;;;;;;;1457071;83;984340;-52
2022/08/13 00:03:02;;;;;;;5.54;5.12;;;;;;;;;;1455380;83;984860;-52
2022/08/13 00:05:28;;;;;;;5.56;4.54;;;;;;;;;;1453834;83;984799;-52
2022/08/13 00:07:55;;;;;;;5.28;4.86;;;;;;;;;;1458569;83;984963;-52
2022/08/13 00:10:32;;;;;;;5.60;5.06;;;;;;;;;;1457755;83;985044;-52
2022/08/13 00:13:00;;;;;;;4.80;4.50;;;;;;;;;;1458517;83;984119;-51
2022/08/13 00:15:37;;;;;;;6.02;5.60;;;;;;;;;;1455728;83;984787;-52
2022/08/13 00:18:04;;;;;;;4.86;4.18;;;;;;;;;;1462541;83;984684;-51
2022/08/13 00:20:32;;;;;;;5.46;4.28;;;;;;;;;;1454526;83;984316;-51
2022/08/13 00:22:58;;;;;;;6.18;5.74;;;;;;;;;;1453923;83;984699;-52
2022/08/13 00:25:24;;;;;;;6.46;4.76;;;;;;;;;;1448380;83;984845;-52
2022/08/13 00:27:56;;;;;;;6.02;4.38;;;;;;;;;;1447438;83;984884;-52
2022/08/13 00:30:18;;;;;;;4.42;4.16;;;;;;;;;;1446334;83;984932;-52
2022/08/13 00:32:45;;;;;;;5.14;4.70;;;;;;;;;;1450396;83;984794;-52
2022/08/13 00:35:12;;;;;;;4.08;2.76;;;;;;;;;;1450822;83;985056;-51
2022/08/13 00:37:41;;;;;;;4.76;4.36;;;;;;;;;;1454871;83;984700;-51
2022/08/13 00:40:06;;;;;;;3.14;2.94;;;;;;;;;;1448079;83;985048;-51
2022/08/13 00:42:33;;;;;;;3.04;2.86;;;;;;;;;;1451172;83;984767;-52
2022/08/13 00:44:59;;;;;;;2.96;2.64;;;;;;;;;;1451215;83;984602;-51
2022/08/13 00:50:13;;;;;;;2.56;2.36;;;;;;;;;;1447189;83;984661;-51
2022/08/13 00:52:40;;;;;;;4.10;2.66;;;;;;;;;;1449009;83;984301;-52
2022/08/13 00:55:07;;;;;;;4.48;2.68;;;;;;;;;;1447422;83;984227;-51
2022/08/13 00:57:36;;;;;;;3.48;2.62;;;;;;;;;;1448797;83;984621;-51
2022/08/13 01:00:07;;;;;;;2.66;1.86;;;;;;;;;;1454586;83;984942;-51
2022/08/13 01:02:32;;;;;;;2.96;1.98;;;;;;;;;;1451805;83;985079;-50
2022/08/13 01:04:59;;;;;;;5.52;2.78;;;;;;;;;;1452764;83;984893;-52
2022/08/13 01:07:25;;;;;;;3.02;2.22;;;;;;;;;;1447955;83;984981;-52
2022/08/13 01:09:52;;;;;;;2.40;1.94;;;;;;;;;;1445826;83;984880;-52
2022/08/13 01:12:21;;;;;;;4.20;2.42;;;;;;;;;;1454058;83;984256;-51
2022/08/13 01:14:47;;;;;;;1.56;1.44;;;;;;;;;;1450653;83;985075;-52
2022/08/13 01:17:13;;;;;;;3.00;2.00;;;;;;;;;;1427183;85;984699;-51
2022/08/13 01:19:42;;;;;;;2.72;1.60;;;;;;;;;;1398236;86;985004;-51
2022/08/13 01:22:07;;;;;;;2.08;1.88;;;;;;;;;;1398313;86;984953;-52
2022/08/13 01:24:34;;;;;;;4.70;1.60;;;;;;;;;;1396806;86;984284;-51
2022/08/13 01:27:00;;;;;;;1.96;1.48;;;;;;;;;;1398462;86;985151;-50
2022/08/13 01:29:26;;;;;;;2.18;1.98;;;;;;;;;;1398207;86;984954;-51
2022/08/13 01:31:53;;;;;;;2.08;1.62;;;;;;;;;;1398780;86;984327;-52
2022/08/13 01:34:19;;;;;;;1.88;1.34;;;;;;;;;;1401303;86;984699;-51
2022/08/13 01:36:46;;;;;;;1.46;1.36;;;;;;;;;;1401416;86;984854;-51
2022/08/13 01:39:12;;;;;;;2.70;1.46;;;;;;;;;;1398593;86;984979;-50
2022/08/13 01:41:38;;;;;;;2.06;1.80;;;;;;;;;;1396174;86;985057;-51
2022/08/13 02:49:31;;;;;;;3.92;1.72;;;;;;;;;;1453164;82;984340;-51
2022/08/13 02:51:59;;;;;;;4.60;1.48;;;;;;;;;;1438545;83;985137;-52
2022/08/13 02:54:27;;;;;;;2.94;1.88;;;;;;;;;;1441999;83;984599;-52
2022/08/13 02:56:53;;;;;;;3.00;1.88;;;;;;;;;;1439645;83;984872;-52
2022/08/13 02:59:19;;;;;;;5.90;2.00;;;;;;;;;;1436713;83;984334;-51
2022/08/13 03:01:45;;;;;;;6.64;1.66;;;;;;;;;;1441312;83;984715;-52
2022/08/13 03:04:14;;;;;;;5.24;1.54;;;;;;;;;;1439712;83;984713;-51
2022/08/13 03:06:39;;;;;;;2.44;1.48;;;;;;;;;;1441830;83;984946;-52
2022/08/13 03:09:05;;;;;;;3.14;1.68;;;;;;;;;;1442880;83;984912;-52
2022/08/13 03:11:36;;;;;;;2.18;1.34;;;;;;;;;;1438451;83;984717;-51
2022/08/13 03:14:03;;;;;;;5.54;1.74;;;;;;;;;;1444099;83;984664;-51
2022/08/13 03:16:29;;;;;;;4.76;1.58;;;;;;;;;;1449560;82;985196;-51
2022/08/13 03:18:57;;;;;;;3.28;1.58;;;;;;;;;;1449070;83;984706;-52
2022/08/13 03:21:28;;;;;;;2.80;1.30;;;;;;;;;;1441737;83;984571;-51
2022/08/13 03:23:54;;;;;;;3.42;1.52;;;;;;;;;;1439258;83;984616;-51
2022/08/13 03:26:21;;;;;;;3.10;1.62;;;;;;;;;;1421221;83;984379;-51
2022/08/13 03:28:51;;;;;;;2.52;1.40;;;;;;;;;;1442551;83;984341;-51
2022/08/13 03:31:15;;;;;;;2.30;1.64;;;;;;;;;;1443342;83;984652;-51
2022/08/13 03:33:41;;;;;;;5.00;1.74;;;;;;;;;;1444329;83;984822;-52
2022/08/13 03:36:07;;;;;;;3.48;1.44;;;;;;;;;;1435673;83;984953;-51
2022/08/13 03:38:33;;;;;;;3.42;2.00;;;;;;;;;;1437148;83;984752;-50
2022/08/13 03:41:03;;;;;;;3.67;1.70;;;;;;;;;;1455910;83;984172;-51
2022/08/13 03:43:30;;;;;;;1.57;1.47;;;;;;;;;;1667306;83;34140;-50
2022/08/13 03:45:57;;;;;;;2.10;1.60;;;;;;;;;;1588208;83;984662;-52
2022/08/13 03:48:24;;;;;;;2.90;1.60;;;;;;;;;;1557182;83;985095;-52
2022/08/13 03:50:50;;;;;;;3.58;2.16;;;;;;;;;;1430888;83;984570;-52
2022/08/13 03:53:17;;;;;;;4.32;1.96;;;;;;;;;;1436532;83;984932;-52
2022/08/13 03:55:43;;;;;;;3.40;2.00;;;;;;;;;;1437390;83;985098;-52
2022/08/13 03:58:09;;;;;;;3.62;1.82;;;;;;;;;;1454954;82;984962;-51
2022/08/13 04:00:40;;;;;;;4.70;1.72;;;;;;;;;;1466157;82;984670;-51
2022/08/13 04:03:13;;;;;;;1.86;1.48;;;;;;;;;;1465099;82;984676;-51
2022/08/13 04:05:39;;;;;;;6.00;1.70;;;;;;;;;;1454473;82;984614;-51
2022/08/13 04:08:05;;;;;;;4.18;1.72;;;;;;;;;;1457064;82;984640;-51
2022/08/13 04:10:33;;;;;;;3.02;1.40;;;;;;;;;;1433104;83;984970;-51
2022/08/13 04:12:59;;;;;;;4.00;1.96;;;;;;;;;;1405807;85;984816;-52
2022/08/13 04:15:25;;;;;;;4.52;2.18;;;;;;;;;;1413031;85;984996;-52
2022/08/13 04:17:52;;;;;;;7.60;1.84;;;;;;;;;;1413313;85;984624;-50
2022/08/13 04:20:19;;;;;;;6.20;1.82;;;;;;;;;;1402110;85;984747;-52
2022/08/13 04:22:45;;;;;;;4.26;2.02;;;;;;;;;;1395629;86;984922;-51
2022/08/13 04:25:12;;;;;;;7.16;2.48;;;;;;;;;;1451632;82;984404;-51
2022/08/13 04:27:39;;;;;;;3.62;1.80;;;;;;;;;;1438040;83;984618;-51
2022/08/13 04:30:06;;;;;;;6.52;2.44;;;;;;;;;;1440110;83;984243;-51
2022/08/13 04:32:41;;;;;;;2.82;1.54;;;;;;;;;;1457707;82;984571;-51
2022/08/13 04:35:08;;;;;;;6.06;2.38;;;;;;;;;;1458118;82;984859;-51
2022/08/13 04:37:34;;;;;;;5.54;2.18;;;;;;;;;;1468535;82;984715;-52
2022/08/13 04:40:00;;;;;;;4.44;1.56;;;;;;;;;;1455903;82;984667;-52
2022/08/13 04:42:26;;;;;;;6.94;2.24;;;;;;;;;;1454320;82;984816;-52
2022/08/13 04:44:52;;;;;;;4.28;2.28;;;;;;;;;;1441960;83;985086;-51
2022/08/13 04:47:18;;;;;;;5.58;2.48;;;;;;;;;;1422590;84;984952;-52
2022/08/13 04:49:48;;;;;;;3.08;2.20;;;;;;;;;;1435040;84;984860;-52
2022/08/13 04:52:12;;;;;;;6.70;2.02;;;;;;;;;;1463339;82;984726;-51
2022/08/13 04:54:38;;;;;;;7.04;2.06;;;;;;;;;;1447284;82;984713;-52
2022/08/13 04:57:04;;;;;;;3.30;2.12;;;;;;;;;;1450790;82;984783;-51
2022/08/13 04:59:31;;;;;;;2.34;1.56;;;;;;;;;;1461311;82;984874;-52
2022/08/13 05:01:57;;;;;;;8.46;1.98;;;;;;;;;;1466639;82;984887;-52
2022/08/13 05:04:23;;;;;;;1.76;1.48;;;;;;;;;;1466471;82;984595;-52
2022/08/13 05:06:51;;;;;;;2.44;2.04;;;;;;;;;;1464483;82;984949;-52
2022/08/13 05:09:17;;;;;;;3.98;1.68;;;;;;;;;;1460695;82;984636;-52
2022/08/13 05:11:42;;;;;;;3.48;2.00;;;;;;;;;;1466443;82;984777;-51
2022/08/13 05:14:08;;;;;;;3.78;2.32;;;;;;;;;;1465372;82;984576;-51
2022/08/13 05:16:34;;;;;;;6.22;2.20;;;;;;;;;;1470168;82;984712;-50
2022/08/13 05:19:03;;;;;;;3.38;1.62;;;;;;;;;;1461163;82;984964;-52
2022/08/13 05:21:29;;;;;;;5.38;1.78;;;;;;;;;;1463027;82;984333;-52
2022/08/13 05:23:55;;;;;;;3.86;2.34;;;;;;;;;;1466389;82;985074;-51
2022/08/13 05:26:23;;;;;;;6.10;2.06;;;;;;;;;;1440960;83;984591;-51
2022/08/13 05:28:49;;;;;;;3.98;2.26;;;;;;;;;;1441397;83;984729;-50
2022/08/13 05:31:17;;;;;;;4.38;2.58;;;;;;;;;;1445037;83;985034;-50
2022/08/13 05:33:43;;;;;;;5.08;2.28;;;;;;;;;;1447879;83;985013;-50
2022/08/13 05:36:09;;;;;;;4.24;2.40;;;;;;;;;;1446237;83;984284;-51
2022/08/13 05:38:35;;;;;;;6.18;3.34;;;;;;;;;;1442730;83;985046;-50
2022/08/13 05:41:02;;;;;;;5.00;2.52;;;;;;;;;;1447637;83;984920;-50
2022/08/13 05:43:29;;;;;;;7.16;2.68;;;;;;;;;;1447004;82;985046;-50
2022/08/13 05:45:57;;;;;;;7.44;3.34;;;;;;;;;;1451072;82;984784;-51
2022/08/13 05:48:24;;;;;;;5.56;2.68;;;;;;;;;;1449089;83;985088;-51
2022/08/13 05:50:51;;;;;;;4.96;2.14;;;;;;;;;;1449737;83;985255;-50
2022/08/13 05:53:17;;;;;;;4.24;2.24;;;;;;;;;;1443506;83;984695;-51
2022/08/13 05:55:43;;;;;;;6.16;2.80;;;;;;;;;;1443426;83;984934;-50
2022/08/13 05:58:10;;;;;;;2.74;1.84;;;;;;;;;;1437146;83;984683;-50
2022/08/13 06:03:27;;;;;;;5.22;2.26;;;;;;;;;;1437919;83;984703;-50
2022/08/13 06:06:01;;;;;;;5.87;2.00;;;;;;;;;;1445440;83;984586;-50
2022/08/13 06:08:29;;;;;;;2.46;1.98;;;;;;;;;;1459161;82;984594;-50
2022/08/13 06:10:57;;;;;;;2.82;2.30;;;;;;;;;;1464614;82;985109;-50
2022/08/13 06:13:23;;;;;;;6.24;2.74;;;;;;;;;;1469934;81;984699;-50
2022/08/13 06:15:57;;;;;;;3.10;2.02;;;;;;;;;;1475281;82;985098;-50
2022/08/13 06:18:18;;;;;;;3.56;1.90;;;;;;;;;;1469341;82;984941;-49
2022/08/13 06:20:45;;;;;;;3.80;1.82;;;;;;;;;;1466587;82;984724;-50
2022/08/13 06:23:12;;;;;;;2.92;2.26;;;;;;;;;;1467006;82;984448;-50
2022/08/13 06:25:38;;;;;;;9.04;2.30;;;;;;;;;;1455298;82;985016;-50
2022/08/13 06:28:04;;;;;;;4.64;2.20;;;;;;;;;;1457581;82;985004;-50
2022/08/13 06:30:30;;;;;;;3.12;1.84;;;;;;;;;;1461436;81;984321;-51
2022/08/13 06:33:01;;;;;;;3.48;2.34;;;;;;;;;;1472006;82;984947;-50
2022/08/13 06:35:25;;;;;;;6.52;3.50;;;;;;;;;;1465474;82;984437;-50
2022/08/13 06:37:51;;;;;;;3.52;2.44;;;;;;;;;;1466137;82;984828;-50
2022/08/13 06:40:20;;;;;;;3.98;2.14;;;;;;;;;;1466431;82;984729;-51
2022/08/13 06:42:46;;;;;;;3.24;2.86;;;;;;;;;;1465832;82;985077;-50
2022/08/13 06:45:12;;;;;;;3.48;2.72;;;;;;;;;;1462947;82;984283;-50
2022/08/13 06:47:39;;;;;;;4.52;3.02;;;;;;;;;;1475671;82;984827;-50
